createdAt,value
2019-05-20T00:04:46.115Z,18.35
2019-05-20T00:09:39.669Z,16.95
2019-05-20T00:14:33.156Z,21.40
2019-05-20T00:19:33.655Z,18.20
2019-05-20T00:24:27.203Z,20.35
2019-05-20T00:29:21.660Z,16.82
2019-05-20T00:34:16.430Z,20.15
2019-05-20T00:39:13.817Z,18.42
2019-05-20T00:44:08.267Z,21.00
2019-05-20T00:49:01.826Z,20.95
2019-05-20T00:53:55.453Z,21.45
2019-05-20T00:58:49.930Z,25.17
2019-05-20T01:03:43.802Z,26.17
2019-05-20T01:08:37.326Z,25.57
2019-05-20T01:13:31.154Z,28.70
2019-05-20T01:18:24.704Z,29.45
2019-05-20T01:23:20.351Z,34.40
2019-05-20T01:28:14.168Z,34.67
2019-05-20T01:33:19.749Z,28.32
2019-05-20T01:38:13.568Z,31.85
2019-05-20T01:43:07.136Z,32.50
2019-05-20T01:48:00.622Z,39.67
2019-05-20T01:52:55.167Z,50.67
2019-05-20T01:57:49.540Z,44.15
2019-05-20T02:02:49.133Z,54.85
2019-05-20T02:07:42.699Z,56.25
2019-05-20T02:12:36.247Z,53.92
2019-05-20T02:17:29.801Z,50.05
2019-05-20T02:22:23.306Z,53.63
2019-05-20T02:27:16.842Z,54.48
2019-05-20T02:32:13.842Z,47.38
2019-05-20T02:37:07.322Z,46.13
2019-05-20T02:42:02.886Z,52.78
2019-05-20T02:46:56.448Z,56.55
2019-05-20T02:51:49.935Z,53.38
2019-05-20T02:56:49.505Z,52.10
2019-05-20T03:01:43.060Z,63.90
2019-05-20T03:06:42.422Z,45.08
2019-05-20T03:11:37.870Z,45.38
2019-05-20T03:16:31.428Z,51.17
2019-05-20T03:21:26.952Z,45.98
2019-05-20T03:26:20.441Z,46.20
2019-05-20T03:31:23.197Z,53.45
2019-05-20T03:36:16.763Z,49.23
2019-05-20T03:41:10.592Z,54.00
2019-05-20T03:46:04.221Z,50.67
2019-05-20T03:50:58.686Z,46.50
2019-05-20T03:55:52.245Z,46.55
2019-05-20T04:00:47.462Z,49.55
2019-05-20T04:05:42.441Z,53.65
2019-05-20T04:10:36.018Z,46.77
2019-05-20T04:15:29.837Z,44.75
2019-05-20T04:20:23.330Z,39.03
2019-05-20T04:25:16.881Z,45.92
2019-05-20T04:30:11.408Z,47.13
2019-05-20T04:35:21.736Z,52.25
2019-05-20T04:40:01.481Z,55.05
2019-05-20T04:44:57.725Z,48.00
2019-05-20T04:49:51.231Z,50.92
2019-05-20T04:54:45.013Z,52.08
2019-05-20T04:59:39.494Z,48.33
2019-05-20T05:04:39.073Z,50.15
2019-05-20T05:09:32.896Z,58.92
2019-05-20T05:14:26.464Z,42.75
2019-05-20T05:19:20.021Z,38.38
2019-05-20T05:24:13.575Z,52.48
2019-05-20T05:29:07.338Z,43.30
2019-05-20T05:34:09.988Z,53.02
2019-05-20T05:39:05.440Z,56.05
2019-05-20T05:44:01.168Z,61.25
2019-05-20T05:48:54.650Z,56.68
2019-05-20T05:53:48.401Z,57.93
2019-05-20T05:58:41.960Z,61.95
2019-05-20T06:03:35.517Z,58.20
2019-05-20T06:08:28.997Z,63.65
2019-05-20T06:13:22.472Z,62.98
2019-05-20T06:18:16.220Z,61.28
2019-05-20T06:23:11.882Z,55.40
2019-05-20T06:28:05.449Z,53.37
2019-05-20T06:32:59.073Z,48.33
2019-05-20T06:37:54.468Z,56.23
2019-05-20T06:42:50.965Z,53.68
2019-05-20T06:47:44.520Z,44.80
2019-05-20T06:52:38.009Z,53.55
2019-05-20T06:57:31.565Z,46.37
2019-05-20T07:02:25.953Z,49.95
2019-05-20T07:07:21.502Z,57.67
2019-05-20T07:12:15.278Z,55.50
2019-05-20T07:17:09.644Z,58.20
2019-05-20T07:22:03.401Z,62.95
2019-05-20T07:26:57.935Z,60.70
2019-05-20T07:31:52.399Z,54.90
2019-05-20T07:37:02.464Z,52.83
2019-05-20T07:41:45.488Z,56.80
2019-05-20T07:46:39.457Z,56.63
2019-05-20T07:51:33.876Z,56.33
2019-05-20T07:56:30.837Z,60.38
2019-05-20T08:01:24.465Z,53.13
2019-05-20T08:06:19.127Z,61.45
2019-05-20T08:11:16.571Z,59.55
2019-05-20T08:16:10.129Z,58.42
2019-05-20T08:21:03.986Z,59.45
2019-05-20T08:25:57.601Z,67.95
2019-05-20T08:30:51.088Z,67.62
2019-05-20T08:35:44.917Z,64.62
2019-05-20T08:40:38.505Z,66.07
2019-05-20T08:45:32.125Z,67.12
2019-05-20T08:50:31.648Z,57.08
2019-05-20T08:55:25.132Z,62.73
2019-05-20T09:00:23.229Z,54.85
2019-05-20T09:05:16.625Z,59.65
2019-05-20T09:10:13.841Z,56.75
2019-05-20T09:15:09.340Z,55.00
2019-05-20T09:20:06.538Z,57.90
2019-05-20T09:25:00.241Z,59.42
2019-05-20T09:29:54.057Z,58.95
2019-05-20T09:34:47.946Z,50.25
2019-05-20T09:39:45.123Z,61.28
2019-05-20T09:44:38.695Z,56.75
2019-05-20T09:49:33.416Z,53.83
2019-05-20T09:54:27.019Z,54.48
2019-05-20T09:59:20.532Z,58.23
2019-05-20T10:04:16.037Z,49.88
2019-05-20T10:09:09.949Z,54.18
2019-05-20T10:14:04.761Z,54.35
2019-05-20T10:19:04.642Z,50.05
2019-05-20T10:24:04.758Z,59.93
2019-05-20T10:28:58.237Z,54.23
2019-05-20T10:33:53.649Z,56.00
2019-05-20T10:38:58.150Z,58.75
2019-05-20T10:43:42.432Z,49.40
2019-05-20T10:48:35.984Z,54.30
2019-05-20T10:53:29.544Z,53.23
2019-05-20T10:58:23.389Z,50.63
2019-05-20T11:03:16.937Z,55.92
2019-05-20T11:08:10.685Z,57.83
2019-05-20T11:13:05.077Z,55.53
2019-05-20T11:17:58.636Z,48.58
2019-05-20T11:22:52.120Z,52.60
2019-05-20T11:27:48.727Z,52.17
2019-05-20T11:32:42.693Z,54.42
2019-05-20T11:37:37.142Z,50.45
2019-05-20T11:42:30.709Z,46.75
2019-05-20T11:47:24.280Z,54.00
2019-05-20T11:52:21.972Z,50.20
2019-05-20T11:57:15.794Z,56.18
2019-05-20T12:02:09.423Z,48.23
2019-05-20T12:07:04.889Z,44.27
2019-05-20T12:11:58.478Z,47.50
2019-05-20T12:16:52.032Z,44.48
2019-05-20T12:21:45.588Z,43.73
2019-05-20T12:26:39.141Z,47.10
2019-05-20T12:31:35.368Z,42.70
2019-05-20T12:36:28.872Z,45.25
2019-05-20T12:41:22.541Z,42.27
2019-05-20T12:46:16.372Z,41.10
2019-05-20T12:51:10.106Z,45.95
2019-05-20T12:56:04.580Z,44.60
2019-05-20T13:00:58.321Z,38.67
2019-05-20T13:05:51.819Z,37.03
2019-05-20T13:10:45.407Z,40.93
2019-05-20T13:15:38.917Z,37.98
2019-05-20T13:20:37.316Z,39.45
2019-05-20T13:25:30.806Z,31.93
2019-05-20T13:30:24.534Z,34.73
2019-05-20T13:35:18.198Z,37.33
2019-05-20T13:40:11.896Z,32.28
2019-05-20T13:45:07.084Z,33.45
2019-05-20T13:50:01.581Z,37.85
2019-05-20T13:54:55.143Z,37.48
2019-05-20T13:59:48.701Z,34.05
2019-05-20T14:04:47.983Z,29.87
2019-05-20T14:09:41.541Z,31.30
2019-05-20T14:14:38.279Z,33.15
2019-05-20T14:19:32.045Z,33.20
2019-05-20T14:24:25.625Z,29.98
2019-05-20T14:29:19.188Z,29.40
2019-05-20T14:34:12.746Z,29.18
2019-05-20T14:39:12.329Z,29.30
2019-05-20T14:44:06.763Z,26.87
2019-05-20T14:49:02.616Z,24.02
2019-05-20T14:53:55.443Z,26.30
2019-05-20T14:58:49.188Z,24.52
2019-05-20T15:03:42.665Z,30.12
2019-05-20T15:08:39.632Z,28.00
2019-05-20T15:13:33.189Z,26.93
2019-05-20T15:18:32.533Z,27.25
2019-05-20T15:23:27.918Z,27.82
2019-05-20T15:28:21.475Z,27.35
2019-05-20T15:33:15.301Z,27.80
2019-05-20T15:38:11.886Z,30.33
2019-05-20T15:43:05.395Z,31.68
2019-05-20T15:47:59.061Z,29.98
2019-05-20T15:52:52.596Z,25.15
2019-05-20T15:57:46.157Z,26.02
2019-05-20T16:02:40.941Z,30.77
2019-05-20T16:07:34.448Z,26.07
2019-05-20T16:12:28.017Z,23.57
2019-05-20T16:17:21.613Z,24.18
2019-05-20T16:22:15.152Z,29.05
2019-05-20T16:27:08.976Z,25.65
2019-05-20T16:32:02.602Z,23.22
2019-05-20T16:36:56.185Z,25.62
2019-05-20T16:41:51.666Z,37.73
2019-05-20T16:46:51.115Z,32.08
2019-05-20T16:51:44.664Z,38.67
2019-05-20T16:56:39.117Z,32.93
2019-05-20T17:01:45.557Z,36.40
2019-05-20T17:06:27.993Z,38.00
2019-05-20T17:11:21.546Z,33.28
2019-05-20T17:16:15.394Z,31.70
2019-05-20T17:21:08.948Z,38.48
2019-05-20T17:26:03.428Z,36.00
2019-05-20T17:30:56.912Z,32.15
2019-05-20T17:35:50.470Z,36.13
2019-05-20T17:40:45.101Z,32.95
2019-05-20T17:45:38.632Z,40.45
2019-05-20T17:50:33.344Z,38.17
2019-05-20T17:55:26.965Z,35.70
2019-05-20T18:00:23.524Z,29.18
2019-05-20T18:05:17.346Z,27.02
2019-05-20T18:10:15.220Z,27.77
2019-05-20T18:15:10.110Z,31.17
2019-05-20T18:20:05.616Z,31.82
2019-05-20T18:24:59.469Z,32.73
2019-05-20T18:29:53.293Z,34.53
2019-05-20T18:34:48.748Z,31.35
2019-05-20T18:39:42.243Z,28.42
2019-05-20T18:44:37.077Z,31.10
2019-05-20T18:49:30.632Z,33.58
2019-05-20T18:54:24.120Z,28.85
2019-05-20T18:59:17.600Z,32.08
2019-05-20T19:04:11.165Z,35.35
2019-05-20T19:09:06.757Z,29.15
2019-05-20T19:14:00.245Z,31.42
2019-05-20T19:18:55.081Z,29.70
2019-05-20T19:23:49.592Z,32.80
2019-05-20T19:28:43.095Z,34.67
2019-05-20T19:33:37.010Z,26.15
2019-05-20T19:38:32.933Z,27.77
2019-05-20T19:43:25.822Z,29.12
2019-05-20T19:48:19.620Z,34.60
2019-05-20T19:53:13.652Z,33.53
2019-05-20T19:58:07.256Z,29.02
2019-05-20T20:03:00.918Z,27.62
2019-05-20T20:07:54.400Z,34.05
2019-05-20T20:12:48.005Z,29.20
2019-05-20T20:17:41.556Z,32.28
2019-05-20T20:22:35.246Z,32.28
2019-05-20T20:27:28.796Z,35.95
2019-05-20T20:32:36.825Z,35.90
2019-05-20T20:37:18.461Z,33.23
2019-05-20T20:42:13.828Z,33.00
2019-05-20T20:47:07.313Z,32.17
2019-05-20T20:52:00.800Z,32.85
2019-05-20T20:56:54.277Z,41.95
2019-05-20T21:01:47.764Z,41.95
2019-05-20T21:06:42.577Z,35.88
2019-05-20T21:11:37.138Z,42.70
2019-05-20T21:16:34.339Z,34.78
2019-05-20T21:21:27.824Z,44.10
2019-05-20T21:26:27.477Z,37.25
2019-05-20T21:31:20.967Z,42.40
2019-05-20T21:36:14.532Z,41.05
2019-05-20T21:41:08.084Z,37.98
2019-05-20T21:46:01.584Z,44.53
2019-05-20T21:50:55.060Z,41.23
2019-05-20T21:55:48.612Z,41.65
2019-05-20T22:00:44.749Z,42.17
2019-05-20T22:05:38.565Z,34.83
2019-05-20T22:10:32.389Z,35.38
2019-05-20T22:15:26.211Z,41.40
2019-05-20T22:20:19.804Z,37.90
2019-05-20T22:25:13.364Z,35.13
2019-05-20T22:30:09.453Z,33.73
2019-05-20T22:35:05.762Z,46.90
2019-05-20T22:39:59.321Z,54.55
2019-05-20T22:44:52.804Z,49.58
2019-05-20T22:49:46.301Z,45.43
2019-05-20T22:54:39.847Z,56.02
2019-05-20T22:59:33.417Z,51.50
2019-05-20T23:04:27.879Z,58.17
2019-05-20T23:09:21.663Z,65.28
2019-05-20T23:14:15.221Z,68.33
2019-05-20T23:19:08.885Z,84.25
2019-05-20T23:24:02.447Z,71.12
2019-05-20T23:28:56.017Z,81.47
2019-05-20T23:33:51.432Z,95.35
2019-05-20T23:38:48.159Z,86.35
2019-05-20T23:43:41.717Z,105.60
2019-05-20T23:48:36.662Z,125.38
2019-05-20T23:53:30.150Z,102.62
2019-05-20T23:58:23.638Z,109.97
